createdAt,value
2019-05-02T00:02:59.743Z,13.25
2019-05-02T00:08:01.067Z,10.80
2019-05-02T00:13:05.454Z,11.00
2019-05-02T00:18:09.263Z,12.00
2019-05-02T00:23:13.235Z,11.50
2019-05-02T00:28:17.038Z,11.00
2019-05-02T00:33:20.823Z,12.00
2019-05-02T00:38:24.646Z,11.00
2019-05-02T00:43:28.962Z,11.50
2019-05-02T00:48:41.668Z,11.00
2019-05-02T00:53:48.294Z,12.00
2019-05-02T00:58:50.983Z,10.00
2019-05-02T01:03:57.135Z,11.75
2019-05-02T01:09:01.090Z,11.00
2019-05-02T01:14:05.133Z,11.75
2019-05-02T01:19:12.172Z,11.00
2019-05-02T01:24:14.474Z,10.00
2019-05-02T01:29:32.939Z,10.00
2019-05-02T01:34:43.566Z,10.25
2019-05-02T01:39:47.685Z,10.00
2019-05-02T01:44:51.457Z,9.40
2019-05-02T01:49:57.346Z,9.25
2019-05-02T01:55:00.862Z,10.25
2019-05-02T02:00:09.468Z,10.00
2019-05-02T02:05:11.108Z,10.17
2019-05-02T02:10:19.515Z,9.60
2019-05-02T02:15:20.408Z,9.75
2019-05-02T02:20:25.994Z,9.00
2019-05-02T02:25:51.232Z,9.25
2019-05-02T02:30:57.827Z,10.00
2019-05-02T02:36:00.560Z,9.25
2019-05-02T02:41:06.582Z,9.00
2019-05-02T02:46:19.158Z,9.20
2019-05-02T02:51:25.751Z,10.00
2019-05-02T02:56:28.521Z,10.00
2019-05-02T03:01:32.310Z,10.00
2019-05-02T03:06:38.323Z,9.20
2019-05-02T03:11:49.014Z,10.00
2019-05-02T03:16:52.787Z,9.75
2019-05-02T03:22:01.194Z,9.25
2019-05-02T03:27:02.183Z,9.20
2019-05-02T03:32:21.971Z,10.00
2019-05-02T03:37:13.880Z,9.20
2019-05-02T03:42:17.059Z,7.80
2019-05-02T03:47:20.833Z,7.25
2019-05-02T03:52:24.610Z,8.50
2019-05-02T03:57:33.825Z,8.00
2019-05-02T04:02:33.938Z,7.25
2019-05-02T04:07:40.448Z,6.75
2019-05-02T04:12:43.270Z,6.75
2019-05-02T04:17:47.043Z,8.75
2019-05-02T04:22:50.964Z,9.00
2019-05-02T04:27:54.797Z,8.00
2019-05-02T04:32:58.581Z,6.00
2019-05-02T04:38:07.986Z,9.00
2019-05-02T04:43:11.242Z,7.75
2019-05-02T04:48:13.437Z,6.20
2019-05-02T04:53:18.909Z,7.40
2019-05-02T04:58:27.851Z,8.00
2019-05-02T05:03:28.576Z,6.25
2019-05-02T05:08:32.386Z,8.25
2019-05-02T05:13:37.443Z,7.80
2019-05-02T05:18:43.972Z,6.50
2019-05-02T05:24:08.622Z,9.00
2019-05-02T05:29:13.900Z,7.75
2019-05-02T05:34:22.676Z,5.00
2019-05-02T05:39:23.531Z,8.00
2019-05-02T05:44:30.610Z,7.25
2019-05-02T05:49:32.962Z,9.00
2019-05-02T05:54:40.420Z,8.00
2019-05-02T05:59:42.290Z,7.25
2019-05-02T06:04:47.732Z,8.00
2019-05-02T06:09:51.678Z,7.00
2019-05-02T06:14:56.209Z,5.25
2019-05-02T06:20:01.001Z,7.50
2019-05-02T06:25:09.211Z,7.00
2019-05-02T06:30:12.182Z,6.75
2019-05-02T06:35:17.146Z,8.00
2019-05-02T06:40:21.575Z,6.80
2019-05-02T06:45:25.402Z,7.75
2019-05-02T06:50:33.277Z,8.00
2019-05-02T06:55:36.345Z,19.25
2019-05-02T07:00:56.641Z,34.40
2019-05-02T07:05:48.888Z,48.50
2019-05-02T07:10:51.515Z,51.25
2019-05-02T07:16:10.651Z,49.75
2019-05-02T07:21:17.346Z,43.00
2019-05-02T07:26:21.288Z,40.75
2019-05-02T07:31:25.520Z,42.25
2019-05-02T07:36:31.071Z,39.00
2019-05-02T07:41:37.212Z,39.80
2019-05-02T07:46:51.121Z,38.00
2019-05-02T07:51:45.953Z,35.00
2019-05-02T07:56:53.427Z,37.25
2019-05-02T08:01:55.532Z,38.00
2019-05-02T08:06:59.339Z,35.20
2019-05-02T08:12:03.233Z,35.60
2019-05-02T08:17:16.024Z,45.50
2019-05-02T08:22:14.754Z,55.50
2019-05-02T08:27:40.371Z,50.25
2019-05-02T08:32:44.177Z,46.00
2019-05-02T08:37:47.994Z,43.80
2019-05-02T08:42:51.809Z,43.00
2019-05-02T08:47:55.883Z,42.50
2019-05-02T08:52:59.748Z,39.25
2019-05-02T08:58:06.578Z,40.00
2019-05-02T09:03:09.247Z,41.50
2019-05-02T09:08:14.215Z,39.00
2019-05-02T09:13:25.986Z,37.75
2019-05-02T09:18:30.193Z,34.60
2019-05-02T09:23:33.127Z,35.00
2019-05-02T09:28:35.591Z,35.00
2019-05-02T09:33:45.206Z,34.60
2019-05-02T09:38:48.689Z,30.00
2019-05-02T09:43:52.399Z,28.75
2019-05-02T09:49:02.870Z,26.25
2019-05-02T09:54:06.351Z,33.50
2019-05-02T09:59:24.409Z,35.00
2019-05-02T10:04:15.152Z,30.50
2019-05-02T10:09:24.265Z,34.50
2019-05-02T10:14:24.667Z,38.40
2019-05-02T10:19:28.558Z,36.00
2019-05-02T10:24:32.406Z,37.75
2019-05-02T10:29:36.301Z,35.75
2019-05-02T10:34:42.128Z,35.75
2019-05-02T10:39:45.742Z,34.00
2019-05-02T10:44:49.591Z,35.00
2019-05-02T10:50:02.318Z,35.80
2019-05-02T10:55:06.480Z,35.40
2019-05-02T11:00:12.161Z,31.40
2019-05-02T11:05:22.521Z,34.80
2019-05-02T11:10:24.809Z,30.80
2019-05-02T11:15:45.909Z,34.25
2019-05-02T11:20:49.704Z,35.00
2019-05-02T11:25:53.725Z,33.25
2019-05-02T11:31:02.641Z,28.00
2019-05-02T11:36:03.415Z,34.60
2019-05-02T11:41:07.197Z,30.75
2019-05-02T11:46:12.172Z,29.20
2019-05-02T11:51:16.512Z,27.25
2019-05-02T11:56:22.232Z,23.25
2019-05-02T12:01:35.717Z,22.75
2019-05-02T12:06:33.197Z,25.50
2019-05-02T12:11:37.146Z,20.75
2019-05-02T12:16:43.013Z,23.20
2019-05-02T12:21:54.195Z,22.75
2019-05-02T12:26:58.123Z,21.00
2019-05-02T12:32:02.588Z,21.60
2019-05-02T12:37:06.704Z,20.00
2019-05-02T12:42:13.194Z,18.75
2019-05-02T12:47:17.410Z,17.20
2019-05-02T12:52:22.548Z,18.25
2019-05-02T12:57:26.497Z,17.25
2019-05-02T13:02:45.246Z,16.50
2019-05-02T13:07:54.252Z,15.00
2019-05-02T13:12:54.712Z,12.25
2019-05-02T13:17:58.503Z,12.25
2019-05-02T13:23:35.415Z,13.50
2019-05-02T13:28:33.633Z,12.25
2019-05-02T13:33:53.309Z,12.00
2019-05-02T13:38:57.192Z,12.25
2019-05-02T13:44:02.178Z,13.00
2019-05-02T13:49:06.025Z,10.75
2019-05-02T13:54:09.814Z,13.50
2019-05-02T13:59:13.638Z,13.40
2019-05-02T14:04:17.587Z,11.50
2019-05-02T14:09:27.142Z,11.20
2019-05-02T14:14:32.606Z,12.00
2019-05-02T14:19:36.554Z,11.80
2019-05-02T14:24:42.132Z,10.80
2019-05-02T14:29:46.125Z,12.25
2019-05-02T14:35:05.226Z,12.25
2019-05-02T14:40:15.268Z,11.60
2019-05-02T14:45:30.073Z,10.40
2019-05-02T14:50:26.591Z,13.20
2019-05-02T14:55:32.457Z,8.20
2019-05-02T15:00:45.806Z,11.00
2019-05-02T15:05:45.914Z,10.80
2019-05-02T15:10:54.395Z,10.00
2019-05-02T15:15:55.264Z,9.00
2019-05-02T15:20:59.060Z,9.25
2019-05-02T15:26:02.864Z,10.00
2019-05-02T15:31:11.808Z,11.00
2019-05-02T15:36:15.858Z,10.75
2019-05-02T15:41:19.660Z,10.00
2019-05-02T15:46:28.136Z,10.00
2019-05-02T15:51:29.114Z,10.00
2019-05-02T15:56:35.586Z,9.00
2019-05-02T16:01:47.801Z,9.00
2019-05-02T16:06:52.893Z,10.00
2019-05-02T16:11:57.115Z,9.20
2019-05-02T16:17:03.172Z,12.00
2019-05-02T16:22:24.905Z,10.75
2019-05-02T16:27:47.620Z,10.00
2019-05-02T16:32:59.153Z,9.60
2019-05-02T16:38:02.958Z,10.00
2019-05-02T16:43:06.788Z,9.00
2019-05-02T16:48:12.039Z,8.00
2019-05-02T16:53:17.243Z,8.00
2019-05-02T16:58:21.527Z,6.00
2019-05-02T17:03:26.604Z,6.80
2019-05-02T17:08:57.514Z,5.60
2019-05-02T17:13:58.234Z,6.00
2019-05-02T17:19:02.040Z,5.40
2019-05-02T17:24:05.884Z,5.20
2019-05-02T17:29:11.838Z,5.00
2019-05-02T17:34:15.367Z,5.00
2019-05-02T17:39:19.151Z,7.25
2019-05-02T17:44:24.672Z,6.80
2019-05-02T17:49:34.911Z,5.60
2019-05-02T17:54:34.303Z,8.60
2019-05-02T17:59:38.071Z,9.60
2019-05-02T18:04:42.068Z,10.00
2019-05-02T18:09:46.166Z,9.00
2019-05-02T18:14:51.411Z,9.00
2019-05-02T18:19:56.717Z,10.50
2019-05-02T18:25:02.290Z,9.80
2019-05-02T18:30:07.236Z,9.60
2019-05-02T18:35:11.752Z,8.00
2019-05-02T18:40:15.722Z,7.40
2019-05-02T18:45:25.491Z,7.00
2019-05-02T18:50:36.727Z,9.00
2019-05-02T18:55:38.073Z,7.60
2019-05-02T19:00:42.137Z,8.00
2019-05-02T19:05:46.753Z,7.20
2019-05-02T19:11:04.717Z,5.00
2019-05-02T19:15:58.254Z,7.00
2019-05-02T19:21:03.017Z,7.00
2019-05-02T19:26:14.606Z,7.00
2019-05-02T19:31:13.186Z,7.40
2019-05-02T19:36:24.187Z,6.60
2019-05-02T19:41:22.505Z,9.00
2019-05-02T19:46:34.755Z,8.00
2019-05-02T19:51:31.917Z,6.80
2019-05-02T19:56:45.339Z,8.00
2019-05-02T20:01:41.261Z,8.00
2019-05-02T20:06:45.108Z,8.60
2019-05-02T20:11:48.976Z,9.00
2019-05-02T20:16:53.373Z,8.00
2019-05-02T20:22:11.857Z,6.25
2019-05-02T20:27:15.745Z,7.25
2019-05-02T20:32:19.577Z,9.00
2019-05-02T20:37:23.522Z,9.40
2019-05-02T20:42:27.439Z,8.00
2019-05-02T20:47:31.290Z,6.00
2019-05-02T20:52:35.166Z,7.50
2019-05-02T20:57:38.953Z,6.00
2019-05-02T21:02:42.776Z,6.00
2019-05-02T21:08:05.666Z,8.00
2019-05-02T21:13:09.474Z,5.50
2019-05-02T21:18:13.264Z,7.25
2019-05-02T21:23:17.160Z,6.80
2019-05-02T21:28:22.694Z,6.00
2019-05-02T21:33:39.412Z,5.75
2019-05-02T21:38:43.219Z,6.00
2019-05-02T21:43:47.018Z,5.80
2019-05-02T21:48:52.738Z,5.50
2019-05-02T21:54:08.316Z,4.00
2019-05-02T21:59:12.516Z,6.20
2019-05-02T22:04:16.346Z,5.20
2019-05-02T22:09:20.144Z,5.40
2019-05-02T22:14:24.057Z,5.50
2019-05-02T22:19:27.850Z,6.00
2019-05-02T22:24:31.658Z,4.00
2019-05-02T22:29:35.447Z,6.00
2019-05-02T22:34:39.264Z,5.80
2019-05-02T22:39:50.999Z,5.00
2019-05-02T22:44:54.789Z,4.75
2019-05-02T22:49:58.631Z,5.00
2019-05-02T22:55:03.003Z,5.00
2019-05-02T23:00:07.132Z,5.00
2019-05-02T23:05:12.390Z,4.33
2019-05-02T23:10:16.232Z,4.00
2019-05-02T23:15:21.659Z,6.00
2019-05-02T23:20:25.507Z,4.00
2019-05-02T23:25:46.970Z,4.25
2019-05-02T23:30:51.908Z,5.00
2019-05-02T23:35:55.794Z,4.50
2019-05-02T23:40:59.660Z,4.00
2019-05-02T23:46:03.441Z,5.00
2019-05-02T23:51:07.211Z,4.80
2019-05-02T23:56:13.028Z,4.00
